sensor_id;sensor_type;location;lat;lon;timestamp;P1;durP1;ratioP1;P2;durP2;ratioP2
42590;SDS011;28218;53.342;-6.216;2023-02-11T00:01:18;2.88;;;1.90;;
42590;SDS011;28218;53.342;-6.216;2023-02-11T00:06:19;4.13;;;1.80;;
42590;SDS011;28218;53.342;-6.216;2023-02-11T00:08:47;4.40;;;2.15;;
42590;SDS011;28218;53.342;-6.216;2023-02-11T00:11:16;4.50;;;2.30;;
42590;SDS011;28218;53.342;-6.216;2023-02-11T00:13:47;3.35;;;2.38;;
42590;SDS011;28218;53.342;-6.216;2023-02-11T00:16:19;7.00;;;2.45;;
42590;SDS011;28218;53.342;-6.216;2023-02-11T00:18:48;4.97;;;2.35;;
42590;SDS011;28218;53.342;-6.216;2023-02-11T00:21:20;8.57;;;2.22;;
42590;SDS011;28218;53.342;-6.216;2023-02-11T00:23:51;5.22;;;2.25;;
42590;SDS011;28218;53.342;-6.216;2023-02-11T00:26:21;2.90;;;2.05;;
42590;SDS011;28218;53.342;-6.216;2023-02-11T00:28:51;4.53;;;2.17;;
42590;SDS011;28218;53.342;-6.216;2023-02-11T00:31:20;5.97;;;2.60;;
42590;SDS011;28218;53.342;-6.216;2023-02-11T00:33:49;4.05;;;3.17;;
42590;SDS011;28218;53.342;-6.216;2023-02-11T00:36:18;5.13;;;2.13;;
42590;SDS011;28218;53.342;-6.216;2023-02-11T00:38:50;4.55;;;2.53;;
42590;SDS011;28218;53.342;-6.216;2023-02-11T00:41:20;6.65;;;2.47;;
42590;SDS011;28218;53.342;-6.216;2023-02-11T00:43:49;4.72;;;2.80;;
42590;SDS011;28218;53.342;-6.216;2023-02-11T00:46:17;4.10;;;2.63;;
42590;SDS011;28218;53.342;-6.216;2023-02-11T00:48:46;8.95;;;2.70;;
42590;SDS011;28218;53.342;-6.216;2023-02-11T00:51:14;5.55;;;2.72;;
42590;SDS011;28218;53.342;-6.216;2023-02-11T00:53:44;5.13;;;2.83;;
42590;SDS011;28218;53.342;-6.216;2023-02-11T00:56:12;3.70;;;2.70;;
42590;SDS011;28218;53.342;-6.216;2023-02-11T00:58:41;9.00;;;3.15;;
42590;SDS011;28218;53.342;-6.216;2023-02-11T01:01:09;4.68;;;2.58;;
42590;SDS011;28218;53.342;-6.216;2023-02-11T01:03:38;4.53;;;2.78;;
42590;SDS011;28218;53.342;-6.216;2023-02-11T01:06:07;5.57;;;2.42;;
42590;SDS011;28218;53.342;-6.216;2023-02-11T01:08:36;8.32;;;3.45;;
42590;SDS011;28218;53.342;-6.216;2023-02-11T01:11:09;4.55;;;2.88;;
42590;SDS011;28218;53.342;-6.216;2023-02-11T01:13:39;4.82;;;3.33;;
42590;SDS011;28218;53.342;-6.216;2023-02-11T01:16:09;5.40;;;3.42;;
42590;SDS011;28218;53.342;-6.216;2023-02-11T01:18:38;4.57;;;3.10;;
42590;SDS011;28218;53.342;-6.216;2023-02-11T01:21:07;3.10;;;2.58;;
42590;SDS011;28218;53.342;-6.216;2023-02-11T01:23:35;6.65;;;2.92;;
42590;SDS011;28218;53.342;-6.216;2023-02-11T01:26:04;5.30;;;3.40;;
42590;SDS011;28218;53.342;-6.216;2023-02-11T01:28:34;5.95;;;2.90;;
42590;SDS011;28218;53.342;-6.216;2023-02-11T01:31:02;6.60;;;3.15;;
42590;SDS011;28218;53.342;-6.216;2023-02-11T01:33:31;5.80;;;2.40;;
42590;SDS011;28218;53.342;-6.216;2023-02-11T01:36:00;6.15;;;2.75;;
42590;SDS011;28218;53.342;-6.216;2023-02-11T01:38:29;7.70;;;2.65;;
42590;SDS011;28218;53.342;-6.216;2023-02-11T01:40:58;4.05;;;2.28;;
42590;SDS011;28218;53.342;-6.216;2023-02-11T01:43:31;5.45;;;2.47;;
42590;SDS011;28218;53.342;-6.216;2023-02-11T01:46:09;6.50;;;2.97;;
42590;SDS011;28218;53.342;-6.216;2023-02-11T01:48:44;4.88;;;2.72;;
42590;SDS011;28218;53.342;-6.216;2023-02-11T01:51:17;3.95;;;2.83;;
42590;SDS011;28218;53.342;-6.216;2023-02-11T01:53:48;9.63;;;2.90;;
42590;SDS011;28218;53.342;-6.216;2023-02-11T01:56:36;4.88;;;2.35;;
42590;SDS011;28218;53.342;-6.216;2023-02-11T01:59:29;5.10;;;2.45;;
42590;SDS011;28218;53.342;-6.216;2023-02-11T02:02:04;4.57;;;2.58;;
42590;SDS011;28218;53.342;-6.216;2023-02-11T02:04:37;5.95;;;2.50;;
42590;SDS011;28218;53.342;-6.216;2023-02-11T02:07:13;4.45;;;2.00;;
42590;SDS011;28218;53.342;-6.216;2023-02-11T02:09:47;3.15;;;2.30;;
42590;SDS011;28218;53.342;-6.216;2023-02-11T02:12:22;5.97;;;2.90;;
42590;SDS011;28218;53.342;-6.216;2023-02-11T02:14:51;2.75;;;2.47;;
42590;SDS011;28218;53.342;-6.216;2023-02-11T02:17:41;3.28;;;1.88;;
42590;SDS011;28218;53.342;-6.216;2023-02-11T02:20:22;4.53;;;2.05;;
42590;SDS011;28218;53.342;-6.216;2023-02-11T02:23:16;4.85;;;2.00;;
42590;SDS011;28218;53.342;-6.216;2023-02-11T02:29:11;4.93;;;2.10;;
42590;SDS011;28218;53.342;-6.216;2023-02-11T02:32:12;2.60;;;2.00;;
42590;SDS011;28218;53.342;-6.216;2023-02-11T02:34:55;5.50;;;2.33;;
42590;SDS011;28218;53.342;-6.216;2023-02-11T02:37:29;4.93;;;2.00;;
42590;SDS011;28218;53.342;-6.216;2023-02-11T02:40:04;4.35;;;1.98;;
42590;SDS011;28218;53.342;-6.216;2023-02-11T02:42:36;7.38;;;2.30;;
42590;SDS011;28218;53.342;-6.216;2023-02-11T02:47:39;4.20;;;1.70;;
42590;SDS011;28218;53.342;-6.216;2023-02-11T02:50:07;3.65;;;1.88;;
42590;SDS011;28218;53.342;-6.216;2023-02-11T02:52:40;5.43;;;1.65;;
42590;SDS011;28218;53.342;-6.216;2023-02-11T02:55:23;3.30;;;1.98;;
42590;SDS011;28218;53.342;-6.216;2023-02-11T02:58:09;1.75;;;1.63;;
42590;SDS011;28218;53.342;-6.216;2023-02-11T03:00:56;5.97;;;2.10;;
42590;SDS011;28218;53.342;-6.216;2023-02-11T03:03:34;1.73;;;1.30;;
42590;SDS011;28218;53.342;-6.216;2023-02-11T03:06:10;5.00;;;1.92;;
42590;SDS011;28218;53.342;-6.216;2023-02-11T03:08:43;3.25;;;1.40;;
42590;SDS011;28218;53.342;-6.216;2023-02-11T03:11:16;3.15;;;1.40;;
42590;SDS011;28218;53.342;-6.216;2023-02-11T03:13:46;4.53;;;1.63;;
42590;SDS011;28218;53.342;-6.216;2023-02-11T03:16:17;3.33;;;1.45;;
42590;SDS011;28218;53.342;-6.216;2023-02-11T03:18:52;6.30;;;2.08;;
42590;SDS011;28218;53.342;-6.216;2023-02-11T03:21:24;6.10;;;1.45;;
42590;SDS011;28218;53.342;-6.216;2023-02-11T03:23:55;2.20;;;1.63;;
42590;SDS011;28218;53.342;-6.216;2023-02-11T03:26:27;2.63;;;1.65;;
42590;SDS011;28218;53.342;-6.216;2023-02-11T03:31:30;5.50;;;2.40;;
42590;SDS011;28218;53.342;-6.216;2023-02-11T03:34:07;4.65;;;1.73;;
42590;SDS011;28218;53.342;-6.216;2023-02-11T03:36:40;6.25;;;2.10;;
42590;SDS011;28218;53.342;-6.216;2023-02-11T03:39:13;6.75;;;2.22;;
42590;SDS011;28218;53.342;-6.216;2023-02-11T03:41:44;5.82;;;2.10;;
42590;SDS011;28218;53.342;-6.216;2023-02-11T03:44:14;6.40;;;2.03;;
42590;SDS011;28218;53.342;-6.216;2023-02-11T03:46:46;4.10;;;1.85;;
42590;SDS011;28218;53.342;-6.216;2023-02-11T03:49:19;3.28;;;1.80;;
42590;SDS011;28218;53.342;-6.216;2023-02-11T03:51:50;5.05;;;2.10;;
42590;SDS011;28218;53.342;-6.216;2023-02-11T03:54:22;4.73;;;1.43;;
42590;SDS011;28218;53.342;-6.216;2023-02-11T03:56:54;7.63;;;1.67;;
42590;SDS011;28218;53.342;-6.216;2023-02-11T03:59:26;6.45;;;1.75;;
42590;SDS011;28218;53.342;-6.216;2023-02-11T04:01:55;3.83;;;2.00;;
42590;SDS011;28218;53.342;-6.216;2023-02-11T04:04:26;3.08;;;1.73;;
42590;SDS011;28218;53.342;-6.216;2023-02-11T04:06:54;7.07;;;1.50;;
42590;SDS011;28218;53.342;-6.216;2023-02-11T04:09:23;4.72;;;2.10;;
42590;SDS011;28218;53.342;-6.216;2023-02-11T04:11:51;5.28;;;1.30;;
42590;SDS011;28218;53.342;-6.216;2023-02-11T04:14:19;6.90;;;2.20;;
42590;SDS011;28218;53.342;-6.216;2023-02-11T04:16:48;7.22;;;1.75;;
42590;SDS011;28218;53.342;-6.216;2023-02-11T04:19:16;1.70;;;1.50;;
42590;SDS011;28218;53.342;-6.216;2023-02-11T04:21:46;2.15;;;1.52;;
42590;SDS011;28218;53.342;-6.216;2023-02-11T04:24:14;1.98;;;1.77;;
42590;SDS011;28218;53.342;-6.216;2023-02-11T04:26:42;7.25;;;1.90;;
42590;SDS011;28218;53.342;-6.216;2023-02-11T04:29:10;5.15;;;1.67;;
42590;SDS011;28218;53.342;-6.216;2023-02-11T04:31:38;3.65;;;1.40;;
42590;SDS011;28218;53.342;-6.216;2023-02-11T04:34:07;3.08;;;1.60;;
42590;SDS011;28218;53.342;-6.216;2023-02-11T04:36:37;2.53;;;1.35;;
42590;SDS011;28218;53.342;-6.216;2023-02-11T04:39:07;2.88;;;1.27;;
42590;SDS011;28218;53.342;-6.216;2023-02-11T04:41:35;3.63;;;1.50;;
42590;SDS011;28218;53.342;-6.216;2023-02-11T04:44:03;2.53;;;1.90;;
42590;SDS011;28218;53.342;-6.216;2023-02-11T04:46:32;2.30;;;1.13;;
42590;SDS011;28218;53.342;-6.216;2023-02-11T04:49:00;3.03;;;1.38;;
42590;SDS011;28218;53.342;-6.216;2023-02-11T04:51:28;2.67;;;1.38;;
42590;SDS011;28218;53.342;-6.216;2023-02-11T04:53:57;5.20;;;1.65;;
42590;SDS011;28218;53.342;-6.216;2023-02-11T04:56:26;2.45;;;1.42;;
42590;SDS011;28218;53.342;-6.216;2023-02-11T04:58:55;2.33;;;1.23;;
42590;SDS011;28218;53.342;-6.216;2023-02-11T05:01:23;1.98;;;1.13;;
42590;SDS011;28218;53.342;-6.216;2023-02-11T05:03:51;3.45;;;1.70;;
42590;SDS011;28218;53.342;-6.216;2023-02-11T05:06:20;1.83;;;0.90;;
42590;SDS011;28218;53.342;-6.216;2023-02-11T05:08:48;1.48;;;1.15;;
42590;SDS011;28218;53.342;-6.216;2023-02-11T05:11:18;1.80;;;1.00;;
42590;SDS011;28218;53.342;-6.216;2023-02-11T05:13:48;1.60;;;1.00;;
42590;SDS011;28218;53.342;-6.216;2023-02-11T05:16:17;3.00;;;1.10;;
42590;SDS011;28218;53.342;-6.216;2023-02-11T05:18:46;3.28;;;1.65;;
42590;SDS011;28218;53.342;-6.216;2023-02-11T05:21:18;2.00;;;1.35;;
42590;SDS011;28218;53.342;-6.216;2023-02-11T05:23:46;3.97;;;1.00;;
42590;SDS011;28218;53.342;-6.216;2023-02-11T05:26:15;3.08;;;1.38;;
42590;SDS011;28218;53.342;-6.216;2023-02-11T05:28:44;2.15;;;0.93;;
42590;SDS011;28218;53.342;-6.216;2023-02-11T05:31:14;6.60;;;1.45;;
42590;SDS011;28218;53.342;-6.216;2023-02-11T05:33:44;1.30;;;1.02;;
42590;SDS011;28218;53.342;-6.216;2023-02-11T05:36:13;1.88;;;0.98;;
42590;SDS011;28218;53.342;-6.216;2023-02-11T05:38:42;1.48;;;1.02;;
42590;SDS011;28218;53.342;-6.216;2023-02-11T05:41:10;3.28;;;0.98;;
42590;SDS011;28218;53.342;-6.216;2023-02-11T05:43:38;3.85;;;1.15;;
42590;SDS011;28218;53.342;-6.216;2023-02-11T05:46:06;4.13;;;1.55;;
42590;SDS011;28218;53.342;-6.216;2023-02-11T05:48:36;2.70;;;1.02;;
42590;SDS011;28218;53.342;-6.216;2023-02-11T05:51:04;1.45;;;0.90;;
42590;SDS011;28218;53.342;-6.216;2023-02-11T05:53:33;3.38;;;1.30;;
42590;SDS011;28218;53.342;-6.216;2023-02-11T05:56:01;1.95;;;0.90;;
42590;SDS011;28218;53.342;-6.216;2023-02-11T05:58:29;4.10;;;1.20;;
42590;SDS011;28218;53.342;-6.216;2023-02-11T06:00:59;3.22;;;1.08;;
42590;SDS011;28218;53.342;-6.216;2023-02-11T06:03:27;1.83;;;1.00;;
42590;SDS011;28218;53.342;-6.216;2023-02-11T06:05:57;4.90;;;1.10;;
42590;SDS011;28218;53.342;-6.216;2023-02-11T06:08:25;3.10;;;0.90;;
42590;SDS011;28218;53.342;-6.216;2023-02-11T06:10:53;2.63;;;1.15;;
42590;SDS011;28218;53.342;-6.216;2023-02-11T06:13:21;4.40;;;1.30;;
42590;SDS011;28218;53.342;-6.216;2023-02-11T06:15:54;3.13;;;1.20;;
42590;SDS011;28218;53.342;-6.216;2023-02-11T06:18:24;2.83;;;1.20;;
42590;SDS011;28218;53.342;-6.216;2023-02-11T06:20:52;2.15;;;1.48;;
42590;SDS011;28218;53.342;-6.216;2023-02-11T06:23:22;5.75;;;1.95;;
42590;SDS011;28218;53.342;-6.216;2023-02-11T06:25:59;4.05;;;1.60;;
42590;SDS011;28218;53.342;-6.216;2023-02-11T06:28:28;3.85;;;1.98;;
42590;SDS011;28218;53.342;-6.216;2023-02-11T06:30:58;5.70;;;2.10;;
42590;SDS011;28218;53.342;-6.216;2023-02-11T06:33:32;2.80;;;1.83;;
42590;SDS011;28218;53.342;-6.216;2023-02-11T06:36:00;6.10;;;2.30;;
42590;SDS011;28218;53.342;-6.216;2023-02-11T06:38:30;4.45;;;2.20;;
42590;SDS011;28218;53.342;-6.216;2023-02-11T06:40:58;4.63;;;2.50;;
42590;SDS011;28218;53.342;-6.216;2023-02-11T06:43:27;6.07;;;2.50;;
42590;SDS011;28218;53.342;-6.216;2023-02-11T06:45:55;5.07;;;2.30;;
42590;SDS011;28218;53.342;-6.216;2023-02-11T06:48:23;5.32;;;2.28;;
42590;SDS011;28218;53.342;-6.216;2023-02-11T06:50:51;2.58;;;2.10;;
42590;SDS011;28218;53.342;-6.216;2023-02-11T06:53:20;6.10;;;1.90;;
42590;SDS011;28218;53.342;-6.216;2023-02-11T06:55:49;4.57;;;2.10;;
42590;SDS011;28218;53.342;-6.216;2023-02-11T06:58:18;6.13;;;2.30;;
42590;SDS011;28218;53.342;-6.216;2023-02-11T07:00:46;2.55;;;1.88;;
42590;SDS011;28218;53.342;-6.216;2023-02-11T07:03:14;2.78;;;2.00;;
42590;SDS011;28218;53.342;-6.216;2023-02-11T07:05:42;3.45;;;2.10;;
42590;SDS011;28218;53.342;-6.216;2023-02-11T07:08:10;3.40;;;1.60;;
42590;SDS011;28218;53.342;-6.216;2023-02-11T07:10:39;3.78;;;1.60;;
42590;SDS011;28218;53.342;-6.216;2023-02-11T07:13:08;4.72;;;1.65;;
42590;SDS011;28218;53.342;-6.216;2023-02-11T07:15:36;3.25;;;1.20;;
42590;SDS011;28218;53.342;-6.216;2023-02-11T07:18:05;4.28;;;1.70;;
42590;SDS011;28218;53.342;-6.216;2023-02-11T07:20:33;7.63;;;2.13;;
42590;SDS011;28218;53.342;-6.216;2023-02-11T07:23:01;2.90;;;1.35;;
42590;SDS011;28218;53.342;-6.216;2023-02-11T07:25:29;1.75;;;1.38;;
42590;SDS011;28218;53.342;-6.216;2023-02-11T07:27:57;4.38;;;0.98;;
42590;SDS011;28218;53.342;-6.216;2023-02-11T07:30:27;3.38;;;1.15;;
42590;SDS011;28218;53.342;-6.216;2023-02-11T07:32:55;3.05;;;0.80;;
42590;SDS011;28218;53.342;-6.216;2023-02-11T07:35:23;3.97;;;0.82;;
42590;SDS011;28218;53.342;-6.216;2023-02-11T07:37:52;10.00;;;1.17;;
42590;SDS011;28218;53.342;-6.216;2023-02-11T07:40:20;1.23;;;0.73;;
42590;SDS011;28218;53.342;-6.216;2023-02-11T07:42:48;4.38;;;1.38;;
42590;SDS011;28218;53.342;-6.216;2023-02-11T07:45:16;3.45;;;0.95;;
42590;SDS011;28218;53.342;-6.216;2023-02-11T07:47:46;2.65;;;0.95;;
42590;SDS011;28218;53.342;-6.216;2023-02-11T07:50:15;4.75;;;1.27;;
42590;SDS011;28218;53.342;-6.216;2023-02-11T07:52:43;4.45;;;1.10;;
42590;SDS011;28218;53.342;-6.216;2023-02-11T07:55:12;1.83;;;1.10;;
42590;SDS011;28218;53.342;-6.216;2023-02-11T07:57:40;6.45;;;1.25;;
42590;SDS011;28218;53.342;-6.216;2023-02-11T08:00:08;4.95;;;1.65;;
42590;SDS011;28218;53.342;-6.216;2023-02-11T08:02:38;4.28;;;1.85;;
42590;SDS011;28218;53.342;-6.216;2023-02-11T08:05:07;2.92;;;1.33;;
42590;SDS011;28218;53.342;-6.216;2023-02-11T08:07:36;6.07;;;1.23;;
42590;SDS011;28218;53.342;-6.216;2023-02-11T08:10:04;4.78;;;0.93;;
42590;SDS011;28218;53.342;-6.216;2023-02-11T08:12:33;1.13;;;0.90;;
42590;SDS011;28218;53.342;-6.216;2023-02-11T08:15:01;6.07;;;1.00;;
42590;SDS011;28218;53.342;-6.216;2023-02-11T08:17:29;2.67;;;0.70;;
42590;SDS011;28218;53.342;-6.216;2023-02-11T08:19:58;5.78;;;0.90;;
42590;SDS011;28218;53.342;-6.216;2023-02-11T08:22:27;1.65;;;1.00;;
42590;SDS011;28218;53.342;-6.216;2023-02-11T08:24:58;5.70;;;1.23;;
42590;SDS011;28218;53.342;-6.216;2023-02-11T08:27:26;6.22;;;1.27;;
42590;SDS011;28218;53.342;-6.216;2023-02-11T08:29:55;7.53;;;1.13;;
42590;SDS011;28218;53.342;-6.216;2023-02-11T08:32:25;2.10;;;1.02;;
42590;SDS011;28218;53.342;-6.216;2023-02-11T08:34:53;3.30;;;1.15;;
42590;SDS011;28218;53.342;-6.216;2023-02-11T08:37:21;5.82;;;1.00;;
42590;SDS011;28218;53.342;-6.216;2023-02-11T08:39:51;3.55;;;1.10;;
42590;SDS011;28218;53.342;-6.216;2023-02-11T08:42:19;3.13;;;1.23;;
42590;SDS011;28218;53.342;-6.216;2023-02-11T08:44:48;2.78;;;1.00;;
42590;SDS011;28218;53.342;-6.216;2023-02-11T08:47:16;4.25;;;1.20;;
42590;SDS011;28218;53.342;-6.216;2023-02-11T08:49:44;4.95;;;1.50;;
42590;SDS011;28218;53.342;-6.216;2023-02-11T08:52:12;5.40;;;1.17;;
42590;SDS011;28218;53.342;-6.216;2023-02-11T08:54:41;6.90;;;1.27;;
42590;SDS011;28218;53.342;-6.216;2023-02-11T08:57:11;10.35;;;1.60;;
42590;SDS011;28218;53.342;-6.216;2023-02-11T08:59:39;5.25;;;0.80;;
42590;SDS011;28218;53.342;-6.216;2023-02-11T09:02:08;8.68;;;1.08;;
42590;SDS011;28218;53.342;-6.216;2023-02-11T09:04:41;6.10;;;1.30;;
42590;SDS011;28218;53.342;-6.216;2023-02-11T09:07:09;10.93;;;2.75;;
42590;SDS011;28218;53.342;-6.216;2023-02-11T09:09:38;10.15;;;1.08;;
42590;SDS011;28218;53.342;-6.216;2023-02-11T09:12:06;13.55;;;1.52;;
42590;SDS011;28218;53.342;-6.216;2023-02-11T09:14:36;6.53;;;1.45;;
42590;SDS011;28218;53.342;-6.216;2023-02-11T09:17:04;7.80;;;1.48;;
42590;SDS011;28218;53.342;-6.216;2023-02-11T09:19:32;6.10;;;1.30;;
42590;SDS011;28218;53.342;-6.216;2023-02-11T09:22:00;4.13;;;1.30;;
42590;SDS011;28218;53.342;-6.216;2023-02-11T09:24:31;4.95;;;1.05;;
42590;SDS011;28218;53.342;-6.216;2023-02-11T09:27:00;5.45;;;1.10;;
42590;SDS011;28218;53.342;-6.216;2023-02-11T09:29:28;8.85;;;1.52;;
42590;SDS011;28218;53.342;-6.216;2023-02-11T09:31:57;20.33;;;1.85;;
42590;SDS011;28218;53.342;-6.216;2023-02-11T09:34:26;13.98;;;1.88;;
42590;SDS011;28218;53.342;-6.216;2023-02-11T09:36:54;7.00;;;1.75;;
42590;SDS011;28218;53.342;-6.216;2023-02-11T09:39:22;15.02;;;2.40;;
42590;SDS011;28218;53.342;-6.216;2023-02-11T09:42:01;6.20;;;1.50;;
42590;SDS011;28218;53.342;-6.216;2023-02-11T09:44:55;3.35;;;0.90;;
42590;SDS011;28218;53.342;-6.216;2023-02-11T09:47:28;7.22;;;1.27;;
42590;SDS011;28218;53.342;-6.216;2023-02-11T09:50:00;6.60;;;1.25;;
42590;SDS011;28218;53.342;-6.216;2023-02-11T09:52:32;6.93;;;1.25;;
42590;SDS011;28218;53.342;-6.216;2023-02-11T09:55:10;4.50;;;0.88;;
42590;SDS011;28218;53.342;-6.216;2023-02-11T09:57:45;5.28;;;1.42;;
42590;SDS011;28218;53.342;-6.216;2023-02-11T10:00:18;6.63;;;1.40;;
42590;SDS011;28218;53.342;-6.216;2023-02-11T10:02:57;4.78;;;1.77;;
42590;SDS011;28218;53.342;-6.216;2023-02-11T10:05:38;15.65;;;1.63;;
42590;SDS011;28218;53.342;-6.216;2023-02-11T10:08:19;7.30;;;1.35;;
42590;SDS011;28218;53.342;-6.216;2023-02-11T10:10:58;4.38;;;1.25;;
42590;SDS011;28218;53.342;-6.216;2023-02-11T10:16:24;13.55;;;3.45;;
42590;SDS011;28218;53.342;-6.216;2023-02-11T10:19:25;13.63;;;1.60;;
42590;SDS011;28218;53.342;-6.216;2023-02-11T10:22:11;5.90;;;1.40;;
42590;SDS011;28218;53.342;-6.216;2023-02-11T10:24:48;12.60;;;1.65;;
42590;SDS011;28218;53.342;-6.216;2023-02-11T10:27:23;9.70;;;2.17;;
42590;SDS011;28218;53.342;-6.216;2023-02-11T10:29:55;8.18;;;1.98;;
42590;SDS011;28218;53.342;-6.216;2023-02-11T10:32:30;15.90;;;2.20;;
42590;SDS011;28218;53.342;-6.216;2023-02-11T10:35:11;12.77;;;1.52;;
42590;SDS011;28218;53.342;-6.216;2023-02-11T10:37:43;10.82;;;1.58;;
42590;SDS011;28218;53.342;-6.216;2023-02-11T10:40:12;5.13;;;1.40;;
42590;SDS011;28218;53.342;-6.216;2023-02-11T10:42:43;4.90;;;1.45;;
42590;SDS011;28218;53.342;-6.216;2023-02-11T10:45:16;12.20;;;2.38;;
42590;SDS011;28218;53.342;-6.216;2023-02-11T10:47:49;8.50;;;1.70;;
42590;SDS011;28218;53.342;-6.216;2023-02-11T10:50:20;18.85;;;2.90;;
42590;SDS011;28218;53.342;-6.216;2023-02-11T10:52:50;3.67;;;1.42;;
42590;SDS011;28218;53.342;-6.216;2023-02-11T10:55:20;5.90;;;1.13;;
42590;SDS011;28218;53.342;-6.216;2023-02-11T10:57:54;8.10;;;1.60;;
42590;SDS011;28218;53.342;-6.216;2023-02-11T11:00:29;14.65;;;1.55;;
42590;SDS011;28218;53.342;-6.216;2023-02-11T11:03:06;3.28;;;1.00;;
42590;SDS011;28218;53.342;-6.216;2023-02-11T11:05:47;3.80;;;1.65;;
42590;SDS011;28218;53.342;-6.216;2023-02-11T11:08:18;9.00;;;2.60;;
42590;SDS011;28218;53.342;-6.216;2023-02-11T11:10:47;7.13;;;1.38;;
42590;SDS011;28218;53.342;-6.216;2023-02-11T11:13:30;5.75;;;1.20;;
42590;SDS011;28218;53.342;-6.216;2023-02-11T11:16:15;8.20;;;1.60;;
42590;SDS011;28218;53.342;-6.216;2023-02-11T11:18:45;5.03;;;1.42;;
42590;SDS011;28218;53.342;-6.216;2023-02-11T11:21:17;10.45;;;1.40;;
42590;SDS011;28218;53.342;-6.216;2023-02-11T11:23:49;4.10;;;1.40;;
42590;SDS011;28218;53.342;-6.216;2023-02-11T11:26:21;12.23;;;2.22;;
42590;SDS011;28218;53.342;-6.216;2023-02-11T11:28:57;8.15;;;1.70;;
42590;SDS011;28218;53.342;-6.216;2023-02-11T11:31:29;6.95;;;1.63;;
42590;SDS011;28218;53.342;-6.216;2023-02-11T11:34:17;5.45;;;2.13;;
42590;SDS011;28218;53.342;-6.216;2023-02-11T11:36:51;5.82;;;1.63;;
42590;SDS011;28218;53.342;-6.216;2023-02-11T11:39:21;5.32;;;1.33;;
42590;SDS011;28218;53.342;-6.216;2023-02-11T11:41:52;6.30;;;1.50;;
42590;SDS011;28218;53.342;-6.216;2023-02-11T11:44:25;11.13;;;1.30;;
42590;SDS011;28218;53.342;-6.216;2023-02-11T11:47:07;8.75;;;1.63;;
42590;SDS011;28218;53.342;-6.216;2023-02-11T11:49:46;5.55;;;1.45;;
42590;SDS011;28218;53.342;-6.216;2023-02-11T11:52:23;5.35;;;1.17;;
42590;SDS011;28218;53.342;-6.216;2023-02-11T11:55:04;11.70;;;1.80;;
42590;SDS011;28218;53.342;-6.216;2023-02-11T11:57:38;8.88;;;1.52;;
42590;SDS011;28218;53.342;-6.216;2023-02-11T12:00:12;5.28;;;1.55;;
42590;SDS011;28218;53.342;-6.216;2023-02-11T12:03:03;10.98;;;1.83;;
42590;SDS011;28218;53.342;-6.216;2023-02-11T12:05:49;10.32;;;2.08;;
42590;SDS011;28218;53.342;-6.216;2023-02-11T12:08:33;6.63;;;1.27;;
42590;SDS011;28218;53.342;-6.216;2023-02-11T12:11:11;9.13;;;1.40;;
42590;SDS011;28218;53.342;-6.216;2023-02-11T12:13:49;7.65;;;1.58;;
42590;SDS011;28218;53.342;-6.216;2023-02-11T12:16:29;7.57;;;1.50;;
42590;SDS011;28218;53.342;-6.216;2023-02-11T12:19:12;9.82;;;2.22;;
42590;SDS011;28218;53.342;-6.216;2023-02-11T12:21:52;5.88;;;1.40;;
42590;SDS011;28218;53.342;-6.216;2023-02-11T12:24:32;14.48;;;1.60;;
42590;SDS011;28218;53.342;-6.216;2023-02-11T12:27:10;4.80;;;1.10;;
42590;SDS011;28218;53.342;-6.216;2023-02-11T12:29:47;7.55;;;1.25;;
42590;SDS011;28218;53.342;-6.216;2023-02-11T12:32:26;3.47;;;0.98;;
42590;SDS011;28218;53.342;-6.216;2023-02-11T12:35:13;8.00;;;2.05;;
42590;SDS011;28218;53.342;-6.216;2023-02-11T12:41:14;5.75;;;1.05;;
42590;SDS011;28218;53.342;-6.216;2023-02-11T12:44:08;6.25;;;1.42;;
42590;SDS011;28218;53.342;-6.216;2023-02-11T12:46:44;6.63;;;1.10;;
42590;SDS011;28218;53.342;-6.216;2023-02-11T12:49:25;6.15;;;1.60;;
42590;SDS011;28218;53.342;-6.216;2023-02-11T12:52:10;5.70;;;0.85;;
42590;SDS011;28218;53.342;-6.216;2023-02-11T12:54:50;5.53;;;1.35;;
42590;SDS011;28218;53.342;-6.216;2023-02-11T12:57:25;4.68;;;1.42;;
42590;SDS011;28218;53.342;-6.216;2023-02-11T12:59:57;5.10;;;1.10;;
42590;SDS011;28218;53.342;-6.216;2023-02-11T13:02:33;7.85;;;1.35;;
42590;SDS011;28218;53.342;-6.216;2023-02-11T13:05:13;7.80;;;1.38;;
42590;SDS011;28218;53.342;-6.216;2023-02-11T13:07:49;8.45;;;2.38;;
42590;SDS011;28218;53.342;-6.216;2023-02-11T13:10:24;6.33;;;1.40;;
42590;SDS011;28218;53.342;-6.216;2023-02-11T13:12:58;11.10;;;1.55;;
42590;SDS011;28218;53.342;-6.216;2023-02-11T13:15:45;6.82;;;1.27;;
42590;SDS011;28218;53.342;-6.216;2023-02-11T13:18:28;9.95;;;2.47;;
42590;SDS011;28218;53.342;-6.216;2023-02-11T13:21:09;6.90;;;1.20;;
42590;SDS011;28218;53.342;-6.216;2023-02-11T13:23:49;7.43;;;1.33;;
42590;SDS011;28218;53.342;-6.216;2023-02-11T13:26:26;5.13;;;1.58;;
42590;SDS011;28218;53.342;-6.216;2023-02-11T13:29:08;7.00;;;2.30;;
42590;SDS011;28218;53.342;-6.216;2023-02-11T13:31:51;7.50;;;1.08;;
42590;SDS011;28218;53.342;-6.216;2023-02-11T13:34:24;5.13;;;1.20;;
42590;SDS011;28218;53.342;-6.216;2023-02-11T13:37:18;6.80;;;1.20;;
42590;SDS011;28218;53.342;-6.216;2023-02-11T13:39:54;11.13;;;1.73;;
42590;SDS011;28218;53.342;-6.216;2023-02-11T13:42:24;8.05;;;1.17;;
42590;SDS011;28218;53.342;-6.216;2023-02-11T13:44:54;11.45;;;1.58;;
42590;SDS011;28218;53.342;-6.216;2023-02-11T13:47:27;6.32;;;1.27;;
42590;SDS011;28218;53.342;-6.216;2023-02-11T13:49:58;8.88;;;1.70;;
42590;SDS011;28218;53.342;-6.216;2023-02-11T13:52:29;5.35;;;2.28;;
42590;SDS011;28218;53.342;-6.216;2023-02-11T13:55:02;8.52;;;2.15;;
42590;SDS011;28218;53.342;-6.216;2023-02-11T13:57:37;7.10;;;1.30;;
42590;SDS011;28218;53.342;-6.216;2023-02-11T14:03:24;3.50;;;1.17;;
42590;SDS011;28218;53.342;-6.216;2023-02-11T14:06:21;2.67;;;1.10;;
42590;SDS011;28218;53.342;-6.216;2023-02-11T14:14:59;6.07;;;1.35;;
42590;SDS011;28218;53.342;-6.216;2023-02-11T14:17:44;5.25;;;1.70;;
42590;SDS011;28218;53.342;-6.216;2023-02-11T14:23:05;3.90;;;1.20;;
42590;SDS011;28218;53.342;-6.216;2023-02-11T14:25:34;8.80;;;2.05;;
42590;SDS011;28218;53.342;-6.216;2023-02-11T14:28:06;7.18;;;1.23;;
42590;SDS011;28218;53.342;-6.216;2023-02-11T14:30:45;12.57;;;2.15;;
42590;SDS011;28218;53.342;-6.216;2023-02-11T14:33:46;8.27;;;1.50;;
42590;SDS011;28218;53.342;-6.216;2023-02-11T14:39:46;3.30;;;1.60;;
42590;SDS011;28218;53.342;-6.216;2023-02-11T14:42:23;8.20;;;2.28;;
42590;SDS011;28218;53.342;-6.216;2023-02-11T14:44:54;10.95;;;3.70;;
42590;SDS011;28218;53.342;-6.216;2023-02-11T14:47:30;4.32;;;2.05;;
42590;SDS011;28218;53.342;-6.216;2023-02-11T14:50:18;6.50;;;3.85;;
42590;SDS011;28218;53.342;-6.216;2023-02-11T14:52:52;8.18;;;2.35;;
42590;SDS011;28218;53.342;-6.216;2023-02-11T14:55:26;4.05;;;1.90;;
42590;SDS011;28218;53.342;-6.216;2023-02-11T14:58:05;5.60;;;1.55;;
42590;SDS011;28218;53.342;-6.216;2023-02-11T15:00:35;10.00;;;3.00;;
42590;SDS011;28218;53.342;-6.216;2023-02-11T15:03:03;5.43;;;1.77;;
42590;SDS011;28218;53.342;-6.216;2023-02-11T15:05:31;6.32;;;2.67;;
42590;SDS011;28218;53.342;-6.216;2023-02-11T15:08:03;7.20;;;2.47;;
42590;SDS011;28218;53.342;-6.216;2023-02-11T15:10:37;6.10;;;2.00;;
42590;SDS011;28218;53.342;-6.216;2023-02-11T15:13:13;4.28;;;1.30;;
42590;SDS011;28218;53.342;-6.216;2023-02-11T15:15:46;6.28;;;1.45;;
42590;SDS011;28218;53.342;-6.216;2023-02-11T15:18:18;4.90;;;1.77;;
42590;SDS011;28218;53.342;-6.216;2023-02-11T15:20:49;7.13;;;1.95;;
42590;SDS011;28218;53.342;-6.216;2023-02-11T15:23:20;3.47;;;1.40;;
42590;SDS011;28218;53.342;-6.216;2023-02-11T15:25:51;4.47;;;2.20;;
42590;SDS011;28218;53.342;-6.216;2023-02-11T15:28:22;4.38;;;1.52;;
42590;SDS011;28218;53.342;-6.216;2023-02-11T15:30:58;1.60;;;1.13;;
42590;SDS011;28218;53.342;-6.216;2023-02-11T15:33:28;5.60;;;1.50;;
42590;SDS011;28218;53.342;-6.216;2023-02-11T15:35:58;3.83;;;1.27;;
42590;SDS011;28218;53.342;-6.216;2023-02-11T15:38:29;1.17;;;0.90;;